Little Rock Air Force Base Jacksonville US
ICAO: KLRF
IATA: LRF
Category: Medium
Scheduled Services: No

Elevation: 311 ft
TransAlt. 18000 ft.

Airport Communications:
APP/DEP:119.5
ATIS:25.11
CLNC DEL:25.35
GND:132.8
ANG COMD POST:143.8
PMSV METRO:23.98
COMD POST:34.94
PTD:37.22
TWR:120.6

KLRF Zoom In..

If you have problems with the map follow the link
https://www.worldairports.se/pages/airport.php?
ICAO=KLRF

Runways:

(A) RW 07 length 12000 ft width 200 ft
---- / hdg 70

(B) RW 25 length 12000 ft width 200 ft
ILS 109.90 / hdg 250

Location; KLRF
Day. 08 / Time. 04.56 Zulu
* Altimeter: 30.22
* Temperature: 05° c. 41°f.
* Wind from: 120° Speed 04 kn.
Dewpoint: 05° c.
Visibility: 4 Statute Miles.
Clouds: Overcast 200 ft.
Conditions: Mist.

KLRF 080456Z 12004KT 4SM BR OVC002 05/05 A3022 RMK AO2A SLP238 T00480045 $


Wind From 120°
Speed 04 kn.

 
 
jpsmedia worldairports.se 2019   terms of use